createdAt,value
2023-03-28T00:00:47.579Z,0.63
2023-03-28T00:03:14.575Z,0.95
2023-03-28T00:05:41.434Z,0.60
2023-03-28T00:08:09.143Z,0.98
2023-03-28T00:10:35.728Z,0.73
2023-03-28T00:13:02.301Z,0.73
2023-03-28T00:15:29.060Z,1.05
2023-03-28T00:17:55.715Z,0.73
2023-03-28T00:20:22.301Z,0.63
2023-03-28T00:22:49.569Z,0.90
2023-03-28T00:25:16.261Z,1.17
2023-03-28T00:27:42.845Z,1.20
2023-03-28T00:30:09.908Z,1.00
2023-03-28T00:32:37.196Z,0.68
2023-03-28T00:35:04.266Z,1.20
2023-03-28T00:37:34.545Z,0.85
2023-03-28T00:40:01.902Z,1.00
2023-03-28T00:42:28.769Z,1.23
2023-03-28T00:44:56.999Z,0.80
2023-03-28T00:47:45.023Z,0.95
2023-03-28T00:50:24.898Z,0.85
2023-03-28T00:53:04.602Z,1.20
2023-03-28T00:56:02.061Z,1.25
2023-03-28T00:58:32.738Z,1.10
2023-03-28T01:00:59.697Z,1.27
2023-03-28T01:03:37.615Z,1.00
2023-03-28T01:06:06.261Z,1.52
2023-03-28T01:08:36.266Z,0.95
2023-03-28T01:11:03.374Z,1.45
2023-03-28T01:13:35.093Z,0.90
2023-03-28T01:16:03.840Z,1.08
2023-03-28T01:18:34.703Z,1.10
2023-03-28T01:21:19.704Z,0.90
2023-03-28T01:24:23.965Z,1.42
2023-03-28T01:27:19.816Z,1.20
2023-03-28T01:30:12.806Z,1.45
2023-03-28T01:33:09.998Z,1.50
2023-03-28T01:35:45.913Z,1.75
2023-03-28T01:38:32.470Z,1.45
2023-03-28T01:41:07.889Z,1.55
2023-03-28T01:43:51.169Z,1.15
2023-03-28T01:46:22.800Z,1.60
2023-03-28T01:48:49.358Z,1.70
2023-03-28T01:51:23.575Z,1.60
2023-03-28T01:53:56.211Z,1.67
2023-03-28T01:56:47.669Z,2.20
2023-03-28T01:59:23.615Z,1.70
2023-03-28T02:02:10.079Z,1.20
2023-03-28T02:04:40.094Z,1.60
2023-03-28T02:07:09.036Z,1.63
2023-03-28T02:09:37.856Z,1.42
2023-03-28T02:12:12.138Z,1.20
2023-03-28T02:14:42.493Z,1.70
2023-03-28T02:17:15.747Z,1.50
2023-03-28T02:19:59.531Z,1.65
2023-03-28T02:22:34.259Z,1.35
2023-03-28T02:25:01.053Z,1.30
2023-03-28T02:27:28.572Z,1.27
2023-03-28T02:29:55.575Z,1.50
2023-03-28T02:32:23.432Z,1.25
2023-03-28T02:34:53.591Z,1.33
2023-03-28T02:37:42.593Z,1.15
2023-03-28T02:40:36.707Z,1.20
2023-03-28T02:43:20.621Z,1.30
2023-03-28T02:46:01.304Z,1.63
2023-03-28T02:48:36.659Z,1.23
2023-03-28T02:51:18.236Z,1.40
2023-03-28T02:53:55.769Z,1.80
2023-03-28T02:56:33.301Z,1.63
2023-03-28T02:59:31.702Z,1.38
2023-03-28T03:01:58.709Z,2.20
2023-03-28T03:04:25.304Z,1.55
2023-03-28T03:06:52.427Z,1.77
2023-03-28T03:09:19.174Z,2.05
2023-03-28T03:11:45.926Z,1.92
2023-03-28T03:14:12.795Z,1.67
2023-03-28T03:16:40.068Z,3.17
2023-03-28T03:19:07.604Z,1.98
2023-03-28T03:21:34.410Z,1.70
2023-03-28T03:24:01.053Z,1.42
2023-03-28T03:26:27.676Z,1.60
2023-03-28T03:28:55.227Z,1.95
2023-03-28T03:31:23.339Z,1.85
2023-03-28T03:33:50.061Z,1.50
2023-03-28T03:36:17.923Z,1.92
2023-03-28T03:38:44.841Z,1.42
2023-03-28T03:41:11.743Z,1.77
2023-03-28T03:43:38.410Z,1.83
2023-03-28T03:46:05.806Z,1.60
2023-03-28T03:48:32.537Z,1.83
2023-03-28T03:50:59.148Z,1.70
2023-03-28T03:53:25.926Z,1.48
2023-03-28T03:55:53.696Z,1.35
2023-03-28T03:58:20.753Z,1.65
2023-03-28T04:00:49.045Z,1.50
2023-03-28T04:03:24.220Z,1.45
2023-03-28T04:05:58.071Z,1.45
2023-03-28T04:08:25.046Z,1.85
2023-03-28T04:10:52.285Z,2.10
2023-03-28T04:13:18.927Z,1.42
2023-03-28T04:15:47.727Z,1.70
2023-03-28T04:18:15.502Z,1.58
2023-03-28T04:20:43.587Z,1.60
2023-03-28T04:23:10.412Z,1.70
2023-03-28T04:25:37.628Z,1.50
2023-03-28T04:28:04.441Z,1.75
2023-03-28T04:30:31.898Z,1.40
2023-03-28T04:32:59.074Z,1.70
2023-03-28T04:35:25.787Z,1.33
2023-03-28T04:37:53.875Z,2.00
2023-03-28T04:40:24.954Z,2.00
2023-03-28T04:42:51.617Z,1.85
2023-03-28T04:45:19.004Z,1.80
2023-03-28T04:47:46.139Z,1.60
2023-03-28T04:50:13.115Z,1.85
2023-03-28T04:52:39.853Z,1.50
2023-03-28T04:55:07.876Z,1.67
2023-03-28T04:57:37.142Z,2.33
2023-03-28T05:00:07.493Z,1.65
2023-03-28T05:02:34.147Z,1.60
2023-03-28T05:05:00.812Z,1.65
2023-03-28T05:07:27.661Z,1.80
2023-03-28T05:09:54.290Z,2.90
2023-03-28T05:12:21.101Z,1.10
2023-03-28T05:14:47.956Z,1.45
2023-03-28T05:17:14.552Z,1.50
2023-03-28T05:19:41.176Z,1.50
2023-03-28T05:22:07.967Z,2.25
2023-03-28T05:24:36.447Z,1.27
2023-03-28T05:27:03.671Z,1.45
2023-03-28T05:29:30.477Z,1.52
2023-03-28T05:31:57.092Z,1.33
2023-03-28T05:34:24.350Z,1.42
2023-03-28T05:36:51.207Z,1.55
2023-03-28T05:39:17.842Z,1.80
2023-03-28T05:41:44.646Z,1.65
2023-03-28T05:44:11.323Z,1.58
2023-03-28T05:46:38.000Z,1.65
2023-03-28T05:49:04.698Z,1.65
2023-03-28T05:51:31.570Z,1.55
2023-03-28T05:53:59.370Z,1.73
2023-03-28T05:56:25.990Z,1.98
2023-03-28T05:58:52.589Z,1.75
2023-03-28T06:01:27.753Z,1.90
2023-03-28T06:03:55.638Z,1.58
2023-03-28T06:06:22.250Z,1.48
2023-03-28T06:08:48.984Z,1.58
2023-03-28T06:11:16.222Z,1.30
2023-03-28T06:13:42.896Z,1.52
2023-03-28T06:16:09.797Z,1.73
2023-03-28T06:18:36.841Z,1.60
2023-03-28T06:21:04.030Z,1.60
2023-03-28T06:23:30.778Z,1.40
2023-03-28T06:25:57.752Z,1.80
2023-03-28T06:28:24.512Z,1.42
2023-03-28T06:30:51.266Z,1.50
2023-03-28T06:33:17.965Z,1.50
2023-03-28T06:35:44.698Z,1.92
2023-03-28T06:38:11.918Z,1.73
2023-03-28T06:40:39.028Z,1.95
2023-03-28T06:43:05.826Z,1.55
2023-03-28T06:45:32.888Z,1.60
2023-03-28T06:47:59.796Z,1.50
2023-03-28T06:50:26.523Z,1.67
2023-03-28T06:52:53.272Z,1.30
2023-03-28T06:55:19.900Z,1.73
2023-03-28T06:57:46.475Z,1.80
2023-03-28T07:00:14.981Z,1.80
2023-03-28T07:02:41.808Z,1.83
2023-03-28T07:05:08.685Z,1.20
2023-03-28T07:07:35.259Z,1.88
2023-03-28T07:10:02.013Z,1.63
2023-03-28T07:12:28.580Z,1.10
2023-03-28T07:14:55.206Z,1.58
2023-03-28T07:17:22.075Z,1.40
2023-03-28T07:19:51.206Z,1.25
2023-03-28T07:22:17.897Z,1.20
2023-03-28T07:24:44.570Z,1.40
2023-03-28T07:27:15.568Z,0.98
2023-03-28T07:29:43.639Z,1.35
2023-03-28T07:32:11.256Z,1.42
2023-03-28T07:34:37.990Z,1.40
2023-03-28T07:37:05.292Z,1.63
2023-03-28T07:39:32.048Z,1.10
2023-03-28T07:41:58.605Z,1.27
2023-03-28T07:44:25.383Z,1.40
2023-03-28T07:46:52.945Z,1.38
2023-03-28T07:49:21.140Z,1.83
2023-03-28T07:51:52.750Z,1.50
2023-03-28T07:54:19.759Z,1.88
2023-03-28T07:56:47.456Z,1.23
2023-03-28T07:59:14.950Z,1.48
2023-03-28T08:01:42.918Z,0.88
2023-03-28T08:04:11.346Z,1.65
2023-03-28T08:06:40.851Z,1.48
2023-03-28T08:09:10.000Z,1.25
2023-03-28T08:11:37.316Z,2.45
2023-03-28T08:14:05.784Z,2.17
2023-03-28T08:16:33.260Z,2.00
2023-03-28T08:19:09.785Z,1.48
2023-03-28T08:21:37.493Z,1.05
2023-03-28T08:24:05.357Z,1.70
2023-03-28T08:26:31.973Z,1.35
2023-03-28T08:29:01.367Z,1.45
2023-03-28T08:31:29.383Z,1.10
2023-03-28T08:33:56.635Z,0.95
2023-03-28T08:36:25.311Z,1.20
2023-03-28T08:38:53.797Z,1.50
2023-03-28T08:41:57.574Z,1.08
2023-03-28T08:44:53.468Z,1.05
2023-03-28T08:47:25.723Z,0.93
2023-03-28T08:50:01.432Z,1.05
2023-03-28T08:52:29.164Z,0.80
2023-03-28T08:55:06.385Z,1.52
2023-03-28T08:57:36.063Z,1.17
2023-03-28T09:00:31.283Z,0.70
2023-03-28T09:02:58.746Z,0.93
2023-03-28T09:05:49.812Z,0.70
2023-03-28T09:08:35.382Z,0.60
2023-03-28T09:11:28.302Z,1.10
2023-03-28T09:14:10.525Z,0.63
2023-03-28T09:17:00.127Z,0.80
2023-03-28T09:19:51.843Z,0.70
2023-03-28T09:22:46.386Z,0.88
2023-03-28T09:25:24.526Z,0.77
2023-03-28T09:28:00.637Z,0.77
2023-03-28T09:30:45.049Z,0.70
2023-03-28T09:33:19.331Z,0.52
2023-03-28T09:35:49.080Z,1.40
2023-03-28T09:38:24.973Z,0.77
2023-03-28T09:40:58.519Z,0.75
2023-03-28T09:43:34.354Z,0.60
2023-03-28T09:46:08.600Z,0.65
2023-03-28T09:48:37.194Z,0.80
2023-03-28T09:51:13.493Z,0.60
2023-03-28T09:53:40.107Z,0.60
2023-03-28T09:56:30.138Z,0.50
2023-03-28T09:58:59.188Z,0.77
2023-03-28T10:01:35.016Z,0.50
2023-03-28T10:04:02.427Z,0.60
2023-03-28T10:06:32.421Z,0.70
2023-03-28T10:09:09.933Z,0.70
2023-03-28T10:11:56.522Z,0.60
2023-03-28T10:14:31.141Z,0.50
2023-03-28T10:17:05.894Z,0.60
2023-03-28T10:19:42.627Z,0.57
2023-03-28T10:22:37.816Z,0.60
2023-03-28T10:25:07.460Z,0.70
2023-03-28T10:27:40.086Z,0.60
2023-03-28T10:30:29.510Z,0.70
2023-03-28T10:33:18.278Z,0.57
2023-03-28T10:35:48.204Z,0.57
2023-03-28T10:38:18.221Z,0.88
2023-03-28T10:41:00.774Z,0.70
2023-03-28T10:43:39.988Z,0.50
2023-03-28T10:46:27.937Z,0.60
2023-03-28T10:49:02.523Z,0.90
2023-03-28T10:51:32.627Z,0.60
2023-03-28T10:54:09.556Z,0.50
2023-03-28T10:57:02.306Z,0.75
2023-03-28T11:02:07.448Z,0.73
2023-03-28T11:04:40.135Z,0.40
2023-03-28T11:07:32.134Z,0.80
2023-03-28T11:10:20.574Z,0.60
2023-03-28T11:12:55.515Z,0.47
2023-03-28T11:15:47.575Z,0.50
2023-03-28T11:18:32.855Z,0.50
2023-03-28T11:21:36.941Z,0.73
2023-03-28T11:24:14.927Z,0.60
2023-03-28T11:27:14.732Z,0.70
2023-03-28T11:29:49.760Z,1.05
2023-03-28T11:32:18.949Z,0.65
2023-03-28T11:35:16.319Z,0.75
2023-03-28T11:37:51.348Z,0.55
2023-03-28T11:40:50.493Z,0.70
2023-03-28T11:43:36.109Z,0.73
2023-03-28T11:46:12.448Z,0.70
2023-03-28T11:48:53.752Z,0.68
2023-03-28T11:51:26.824Z,0.75
2023-03-28T11:54:18.853Z,0.90
2023-03-28T11:57:01.318Z,0.60
2023-03-28T11:59:53.743Z,0.50
2023-03-28T12:02:41.425Z,0.60
2023-03-28T12:05:27.117Z,0.65
2023-03-28T12:08:15.863Z,0.60
2023-03-28T12:10:46.019Z,0.70
2023-03-28T12:13:16.474Z,0.57
2023-03-28T12:15:57.532Z,0.68
2023-03-28T12:18:45.896Z,0.55
2023-03-28T12:21:47.119Z,0.77
2023-03-28T12:24:25.760Z,0.82
2023-03-28T12:27:07.798Z,0.60
2023-03-28T12:29:34.413Z,0.73
2023-03-28T12:32:24.988Z,0.60
2023-03-28T12:35:22.254Z,0.60
2023-03-28T12:37:56.711Z,0.60
2023-03-28T12:40:52.120Z,0.75
2023-03-28T12:43:23.300Z,0.60
2023-03-28T12:45:57.518Z,0.90
2023-03-28T12:48:47.289Z,1.05
2023-03-28T12:51:29.869Z,0.80
2023-03-28T12:54:07.683Z,0.50
2023-03-28T12:56:35.150Z,0.63
2023-03-28T12:59:35.869Z,0.57
2023-03-28T13:02:14.282Z,0.75
2023-03-28T13:04:43.952Z,0.80
2023-03-28T13:07:18.187Z,0.85
2023-03-28T13:09:59.677Z,0.70
2023-03-28T13:12:30.369Z,0.70
2023-03-28T13:14:59.970Z,0.60
2023-03-28T13:17:32.407Z,0.70
2023-03-28T13:20:15.724Z,0.70
2023-03-28T13:22:53.688Z,0.82
2023-03-28T13:25:26.053Z,0.50
2023-03-28T13:27:55.019Z,0.82
2023-03-28T13:30:26.259Z,0.70
2023-03-28T13:32:59.804Z,0.80
2023-03-28T13:35:46.482Z,0.70
2023-03-28T13:38:23.693Z,0.70
2023-03-28T13:40:56.126Z,0.90
2023-03-28T13:43:48.390Z,0.50
2023-03-28T13:46:20.531Z,0.77
2023-03-28T13:48:54.845Z,0.80
2023-03-28T13:51:29.539Z,0.55
2023-03-28T13:53:56.156Z,0.68
2023-03-28T13:56:26.346Z,0.75
2023-03-28T13:58:55.718Z,0.90
2023-03-28T14:01:33.215Z,0.82
2023-03-28T14:03:59.872Z,0.90
2023-03-28T14:06:29.649Z,0.70
2023-03-28T14:09:00.441Z,0.80
2023-03-28T14:11:37.616Z,1.05
2023-03-28T14:14:16.369Z,0.75
2023-03-28T14:16:45.354Z,0.70
2023-03-28T14:19:21.147Z,0.70
2023-03-28T14:21:49.226Z,0.90
2023-03-28T14:24:26.368Z,0.70
2023-03-28T14:27:07.806Z,0.70
2023-03-28T14:29:34.649Z,0.90
2023-03-28T14:32:06.340Z,0.70
2023-03-28T14:34:41.038Z,0.55
2023-03-28T14:37:24.942Z,0.70
2023-03-28T14:39:52.629Z,0.70
2023-03-28T14:42:23.228Z,0.70
2023-03-28T14:44:53.311Z,0.82
2023-03-28T14:47:30.104Z,0.70
2023-03-28T14:49:56.949Z,0.77
2023-03-28T14:52:34.480Z,0.70
2023-03-28T14:55:02.354Z,0.68
2023-03-28T14:57:30.252Z,0.60
2023-03-28T14:59:58.380Z,0.90
2023-03-28T15:02:37.043Z,0.95
2023-03-28T15:05:08.059Z,0.88
2023-03-28T15:07:36.684Z,0.75
2023-03-28T15:10:08.684Z,1.02
2023-03-28T15:12:51.063Z,0.70
2023-03-28T15:15:26.735Z,0.60
2023-03-28T15:17:57.171Z,1.08
2023-03-28T15:20:31.359Z,0.93
2023-03-28T15:23:01.385Z,0.70
2023-03-28T15:25:29.841Z,0.60
2023-03-28T15:27:59.838Z,1.10
2023-03-28T15:30:27.825Z,0.70
2023-03-28T15:33:01.743Z,0.90
2023-03-28T15:35:32.701Z,0.90
2023-03-28T15:38:15.506Z,0.70
2023-03-28T15:40:47.854Z,1.25
2023-03-28T15:46:15.372Z,1.08
2023-03-28T15:48:43.045Z,1.20
2023-03-28T15:51:18.908Z,3.40
2023-03-28T15:53:47.790Z,1.50
2023-03-28T15:56:37.193Z,4.03
2023-03-28T15:59:14.529Z,0.98
2023-03-28T16:01:41.601Z,1.90
2023-03-28T16:04:27.935Z,2.20
2023-03-28T16:07:13.547Z,5.30
2023-03-28T16:09:43.126Z,1.05
2023-03-28T16:12:13.556Z,1.00
2023-03-28T16:14:45.927Z,1.33
2023-03-28T16:19:44.699Z,0.90
2023-03-28T16:22:11.295Z,1.05
2023-03-28T16:24:38.112Z,0.80
2023-03-28T16:27:04.980Z,1.23
2023-03-28T16:29:31.697Z,1.35
2023-03-28T16:32:00.015Z,0.80
2023-03-28T16:34:27.161Z,1.38
2023-03-28T16:36:56.113Z,1.30
2023-03-28T16:39:24.357Z,0.98
2023-03-28T16:41:51.054Z,1.00
2023-03-28T16:44:17.723Z,1.30
2023-03-28T16:46:44.401Z,1.15
2023-03-28T16:49:11.367Z,1.20
2023-03-28T16:51:38.013Z,1.60
2023-03-28T16:54:04.813Z,1.95
2023-03-28T16:56:31.423Z,2.60
2023-03-28T16:58:58.066Z,1.90
2023-03-28T17:01:24.894Z,3.15
2023-03-28T17:03:52.804Z,1.90
2023-03-28T17:06:19.690Z,2.28
2023-03-28T17:08:46.590Z,4.28
2023-03-28T17:11:13.754Z,5.55
2023-03-28T17:13:42.181Z,2.70
2023-03-28T17:16:10.795Z,9.07
2023-03-28T17:18:37.515Z,4.43
2023-03-28T17:21:08.276Z,2.63
2023-03-28T17:23:36.481Z,4.22
2023-03-28T17:26:04.288Z,4.32
2023-03-28T17:28:31.113Z,3.65
2023-03-28T17:30:57.875Z,3.30
2023-03-28T17:33:50.847Z,3.20
2023-03-28T17:38:53.588Z,2.53
2023-03-28T17:41:23.216Z,1.92
2023-03-28T17:43:51.248Z,1.90
2023-03-28T17:46:18.504Z,1.42
2023-03-28T17:48:45.302Z,1.83
2023-03-28T17:51:12.085Z,1.58
2023-03-28T17:53:39.571Z,1.63
2023-03-28T17:56:07.477Z,1.60
2023-03-28T17:58:34.773Z,1.90
2023-03-28T18:01:01.710Z,2.30
2023-03-28T18:03:28.745Z,1.50
2023-03-28T18:06:00.203Z,2.05
2023-03-28T18:08:28.669Z,1.83
2023-03-28T18:11:05.460Z,1.92
2023-03-28T18:13:33.293Z,2.08
2023-03-28T18:16:00.585Z,2.53
2023-03-28T18:18:27.348Z,2.13
2023-03-28T18:20:54.327Z,2.55
2023-03-28T18:23:22.071Z,2.30
2023-03-28T18:25:51.180Z,2.80
2023-03-28T18:28:22.067Z,2.92
2023-03-28T18:30:49.039Z,2.75
2023-03-28T18:33:16.016Z,2.45
2023-03-28T18:35:43.043Z,2.70
2023-03-28T18:38:09.641Z,2.72
2023-03-28T18:40:36.628Z,3.58
2023-03-28T18:43:03.586Z,3.38
2023-03-28T18:45:30.273Z,3.67
2023-03-28T18:47:56.950Z,4.18
2023-03-28T18:50:23.554Z,4.70
2023-03-28T18:52:50.176Z,4.53
2023-03-28T18:55:16.885Z,4.57
2023-03-28T18:57:43.497Z,4.63
2023-03-28T19:00:17.621Z,4.55
2023-03-28T19:02:45.788Z,4.88
2023-03-28T19:05:13.366Z,4.90
2023-03-28T19:07:40.481Z,4.18
2023-03-28T19:10:08.436Z,4.60
2023-03-28T19:12:36.743Z,4.93
2023-03-28T19:15:04.594Z,4.47
2023-03-28T19:17:34.527Z,4.53
2023-03-28T19:20:06.055Z,4.78
2023-03-28T19:22:32.825Z,4.40
2023-03-28T19:24:59.490Z,4.82
2023-03-28T19:27:26.142Z,4.65
2023-03-28T19:29:52.811Z,4.85
2023-03-28T19:32:19.413Z,5.07
2023-03-28T19:34:46.431Z,4.68
2023-03-28T19:37:13.132Z,5.00
2023-03-28T19:39:39.777Z,5.15
2023-03-28T19:42:06.560Z,5.30
2023-03-28T19:44:33.308Z,6.97
2023-03-28T19:47:00.278Z,6.00
2023-03-28T19:49:26.900Z,5.45
2023-03-28T19:51:53.621Z,6.32
2023-03-28T19:54:20.411Z,6.05
2023-03-28T19:56:48.602Z,6.25
2023-03-28T19:59:16.657Z,6.50
2023-03-28T20:01:43.365Z,6.47
2023-03-28T20:04:10.763Z,6.75
2023-03-28T20:06:37.491Z,6.20
2023-03-28T20:09:04.155Z,5.93
2023-03-28T20:11:30.936Z,6.30
2023-03-28T20:13:57.681Z,6.25
2023-03-28T20:16:24.447Z,6.00
2023-03-28T20:18:51.123Z,6.20
2023-03-28T20:21:17.791Z,6.20
2023-03-28T20:23:44.404Z,5.70
2023-03-28T20:26:14.258Z,6.38
2023-03-28T20:28:41.791Z,6.63
2023-03-28T20:31:12.695Z,6.90
2023-03-28T20:33:40.585Z,6.47
2023-03-28T20:36:08.090Z,6.03
2023-03-28T20:38:35.328Z,6.30
2023-03-28T20:41:02.335Z,6.38
2023-03-28T20:43:29.593Z,7.00
2023-03-28T20:45:58.175Z,7.03
2023-03-28T20:48:34.961Z,6.95
2023-03-28T20:51:14.293Z,7.10
2023-03-28T20:53:45.053Z,7.28
2023-03-28T20:56:13.376Z,6.97
2023-03-28T20:58:40.817Z,7.65
2023-03-28T21:01:09.706Z,8.82
2023-03-28T21:03:46.397Z,9.10
2023-03-28T21:06:33.366Z,9.75
2023-03-28T21:09:01.847Z,10.05
2023-03-28T21:11:31.513Z,10.32
2023-03-28T21:13:59.847Z,9.55
2023-03-28T21:16:28.144Z,8.63
2023-03-28T21:18:55.506Z,8.70
2023-03-28T21:21:22.184Z,9.45
2023-03-28T21:23:49.417Z,8.75
2023-03-28T21:26:21.394Z,8.18
2023-03-28T21:28:49.075Z,8.40
2023-03-28T21:31:25.605Z,8.23
2023-03-28T21:33:55.491Z,8.60
2023-03-28T21:36:22.275Z,9.30
2023-03-28T21:38:49.248Z,9.18
2023-03-28T21:41:16.753Z,7.50
2023-03-28T21:43:43.721Z,8.05
2023-03-28T21:46:11.336Z,7.82
2023-03-28T21:48:38.506Z,8.23
2023-03-28T21:51:05.733Z,6.93
2023-03-28T21:53:36.141Z,6.53
2023-03-28T21:56:06.958Z,6.80
2023-03-28T21:58:34.555Z,6.35
2023-03-28T22:01:04.035Z,6.80
2023-03-28T22:03:31.455Z,6.03
2023-03-28T22:06:00.822Z,6.65
2023-03-28T22:08:27.645Z,6.90
2023-03-28T22:10:58.606Z,6.38
2023-03-28T22:13:25.679Z,6.63
2023-03-28T22:15:53.042Z,6.60
2023-03-28T22:18:20.604Z,7.25
2023-03-28T22:20:53.142Z,7.18
2023-03-28T22:23:21.761Z,6.70
2023-03-28T22:25:48.741Z,7.70
2023-03-28T22:28:16.117Z,7.72
2023-03-28T22:30:43.031Z,8.55
2023-03-28T22:33:11.199Z,8.82
2023-03-28T22:35:38.491Z,8.73
2023-03-28T22:38:05.851Z,9.63
2023-03-28T22:40:33.075Z,8.00
2023-03-28T22:43:00.585Z,7.28
2023-03-28T22:45:27.350Z,7.78
2023-03-28T22:47:54.301Z,7.82
2023-03-28T22:50:23.119Z,7.50
2023-03-28T22:52:53.110Z,7.65
2023-03-28T22:55:22.377Z,7.82
2023-03-28T22:57:52.693Z,7.32
2023-03-28T23:00:23.421Z,7.68
2023-03-28T23:02:51.938Z,8.18
2023-03-28T23:05:20.009Z,8.32
2023-03-28T23:07:47.404Z,7.18
2023-03-28T23:10:17.123Z,7.93
2023-03-28T23:12:44.659Z,7.40
2023-03-28T23:15:12.252Z,6.57
2023-03-28T23:17:39.046Z,6.75
2023-03-28T23:20:14.866Z,7.20
2023-03-28T23:22:43.670Z,8.32
2023-03-28T23:25:12.439Z,8.38
2023-03-28T23:27:39.982Z,8.38
2023-03-28T23:30:07.833Z,7.35
2023-03-28T23:32:35.139Z,8.50
2023-03-28T23:35:02.184Z,9.07
2023-03-28T23:37:29.028Z,8.60
2023-03-28T23:39:56.455Z,8.70
2023-03-28T23:42:24.226Z,10.13
2023-03-28T23:44:51.758Z,9.75
2023-03-28T23:47:20.460Z,8.70
2023-03-28T23:49:47.637Z,10.10
2023-03-28T23:52:16.322Z,8.57
2023-03-28T23:54:43.428Z,8.85
2023-03-28T23:57:10.283Z,7.68
2023-03-28T23:59:37.146Z,6.13
